createdAt,value
2023-04-22T00:00:09.087Z,97850.63
2023-04-22T00:01:10.867Z,97850.63
2023-04-22T00:02:17.314Z,97853.28
2023-04-22T00:03:19.051Z,97850.63
2023-04-22T00:04:21.467Z,97849.91
2023-04-22T00:05:23.655Z,97854.81
2023-04-22T00:06:25.354Z,97849.91
2023-04-22T00:07:26.885Z,97849.91
2023-04-22T00:08:28.429Z,97852.56
2023-04-22T00:09:29.991Z,97848.38
2023-04-22T00:10:31.776Z,97849.16
2023-04-22T00:11:33.288Z,97848.41
2023-04-22T00:12:34.751Z,97846.13
2023-04-22T00:13:37.126Z,97847.25
2023-04-22T00:14:38.884Z,97841.97
2023-04-22T00:15:40.813Z,97841.22
2023-04-22T00:16:42.440Z,97846.91
2023-04-22T00:17:46.000Z,97842.34
2023-04-22T00:18:47.689Z,97840.84
2023-04-22T00:19:49.569Z,97843.09
2023-04-22T00:20:51.182Z,97846.91
2023-04-22T00:21:52.940Z,97832.91
2023-04-22T00:22:54.393Z,97846.50
2023-04-22T00:23:55.879Z,97841.22
2023-04-22T00:24:57.631Z,97840.84
2023-04-22T00:25:59.622Z,97841.59
2023-04-22T00:27:01.133Z,97834.78
2023-04-22T00:28:02.608Z,97837.41
2023-04-22T00:29:04.081Z,97829.88
2023-04-22T00:30:06.766Z,97831.38
2023-04-22T00:31:08.573Z,97837.78
2023-04-22T00:32:10.106Z,97829.88
2023-04-22T00:33:11.682Z,97834.41
2023-04-22T00:34:13.251Z,97837.06
2023-04-22T00:35:14.818Z,97839.72
2023-04-22T00:36:16.321Z,97837.06
2023-04-22T00:37:17.897Z,97833.28
2023-04-22T00:38:19.323Z,97830.63
2023-04-22T00:39:20.962Z,97841.59
2023-04-22T00:40:23.014Z,97842.75
2023-04-22T00:41:24.869Z,97837.06
2023-04-22T00:42:27.261Z,97842.34
2023-04-22T00:43:28.888Z,97838.56
2023-04-22T00:44:30.937Z,97834.41
2023-04-22T00:45:32.699Z,97840.09
2023-04-22T00:46:34.302Z,97837.84
2023-04-22T00:47:36.893Z,97836.69
2023-04-22T00:48:38.917Z,97834.44
2023-04-22T00:49:40.865Z,97838.97
2023-04-22T00:50:42.760Z,97837.47
2023-04-22T00:51:44.188Z,97838.59
2023-04-22T00:52:45.947Z,97835.56
2023-04-22T00:53:47.666Z,97832.16
2023-04-22T00:54:49.779Z,97836.72
2023-04-22T00:55:51.790Z,97839.34
2023-04-22T00:56:53.333Z,97839.34
2023-04-22T00:57:55.760Z,97845.78
2023-04-22T00:58:58.066Z,97834.81
2023-04-22T00:59:59.740Z,97835.94
2023-04-22T01:01:01.206Z,97842.00
2023-04-22T01:02:04.285Z,97840.09
2023-04-22T01:03:07.429Z,97837.47
2023-04-22T01:04:12.399Z,97842.75
2023-04-22T01:05:14.130Z,97835.59
2023-04-22T01:06:18.671Z,97840.50
2023-04-22T01:07:20.567Z,97836.34
2023-04-22T01:08:22.023Z,97836.34
2023-04-22T01:09:23.582Z,97834.06
2023-04-22T01:10:25.162Z,97827.66
2023-04-22T01:11:26.877Z,97831.41
2023-04-22T01:12:31.818Z,97834.44
2023-04-22T01:13:33.294Z,97838.97
2023-04-22T01:14:35.033Z,97834.06
2023-04-22T01:15:37.297Z,97840.09
2023-04-22T01:16:39.352Z,97835.22
2023-04-22T01:17:41.270Z,97834.44
2023-04-22T01:18:42.949Z,97838.59
2023-04-22T01:19:44.911Z,97840.88
2023-04-22T01:20:46.427Z,97834.44
2023-04-22T01:21:50.967Z,97836.31
2023-04-22T01:22:54.769Z,97838.59
2023-04-22T01:23:56.351Z,97837.44
2023-04-22T01:24:57.943Z,97830.63
2023-04-22T01:25:59.903Z,97845.75
2023-04-22T01:27:01.991Z,97835.56
2023-04-22T01:28:03.884Z,97831.38
2023-04-22T01:29:06.064Z,97832.91
2023-04-22T01:30:08.498Z,97825.75
2023-04-22T01:31:09.987Z,97832.53
2023-04-22T01:32:11.662Z,97828.38
2023-04-22T01:33:13.299Z,97830.28
2023-04-22T01:34:15.088Z,97829.88
2023-04-22T01:35:16.519Z,97833.28
2023-04-22T01:36:18.131Z,97829.88
2023-04-22T01:37:19.717Z,97833.66
2023-04-22T01:38:21.300Z,97834.41
2023-04-22T01:39:22.798Z,97834.41
2023-04-22T01:40:26.342Z,97840.06
2023-04-22T01:41:28.004Z,97839.69
2023-04-22T01:42:30.597Z,97834.78
2023-04-22T01:43:32.690Z,97835.53
2023-04-22T01:44:34.203Z,97835.13
2023-04-22T01:45:35.736Z,97840.81
2023-04-22T01:46:37.628Z,97838.56
2023-04-22T01:47:39.192Z,97837.03
2023-04-22T01:48:40.773Z,97836.28
2023-04-22T01:49:42.498Z,97833.97
2023-04-22T01:50:44.404Z,97835.13
2023-04-22T01:51:46.263Z,97833.97
2023-04-22T01:52:47.887Z,97835.50
2023-04-22T01:53:49.491Z,97833.63
2023-04-22T01:54:51.381Z,97832.09
2023-04-22T01:55:53.028Z,97833.97
2023-04-22T01:56:55.332Z,97840.78
2023-04-22T01:57:56.900Z,97836.28
2023-04-22T01:58:58.415Z,97834.38
2023-04-22T02:00:00.397Z,97839.28
2023-04-22T02:01:01.894Z,97832.50
2023-04-22T02:02:04.009Z,97834.00
2023-04-22T02:03:05.621Z,97833.25
2023-04-22T02:04:07.135Z,97824.97
2023-04-22T02:05:09.147Z,97835.53
2023-04-22T02:06:10.738Z,97845.72
2023-04-22T02:07:12.288Z,97832.50
2023-04-22T02:08:13.722Z,97831.00
2023-04-22T02:09:15.353Z,97837.81
2023-04-22T02:10:16.814Z,97837.41
2023-04-22T02:11:18.281Z,97840.81
2023-04-22T02:12:19.802Z,97837.06
2023-04-22T02:13:21.311Z,97840.47
2023-04-22T02:14:22.990Z,97841.19
2023-04-22T02:15:24.555Z,97846.13
2023-04-22T02:16:26.278Z,97837.78
2023-04-22T02:17:28.171Z,97841.94
2023-04-22T02:18:29.626Z,97839.31
2023-04-22T02:19:31.301Z,97848.34
2023-04-22T02:20:32.779Z,97846.84
2023-04-22T02:21:34.423Z,97845.72
2023-04-22T02:22:36.394Z,97843.81
2023-04-22T02:23:39.284Z,97846.47
2023-04-22T02:24:40.732Z,97845.69
2023-04-22T02:25:51.158Z,97849.81
2023-04-22T02:26:52.868Z,97852.09
2023-04-22T02:27:54.434Z,97849.06
2023-04-22T02:28:55.909Z,97855.50
2023-04-22T02:29:57.395Z,97853.19
2023-04-22T02:30:58.856Z,97855.50
2023-04-22T02:32:00.674Z,97853.97
2023-04-22T02:33:02.571Z,97855.81
2023-04-22T02:34:04.133Z,97861.06
2023-04-22T02:35:06.486Z,97854.25
2023-04-22T02:36:08.190Z,97858.78
2023-04-22T02:37:09.670Z,97864.09
2023-04-22T02:38:11.274Z,97855.34
2023-04-22T02:39:12.864Z,97857.56
2023-04-22T02:40:14.324Z,97860.97
2023-04-22T02:41:16.081Z,97859.09
2023-04-22T02:42:17.913Z,97859.81
2023-04-22T02:43:19.313Z,97865.09
2023-04-22T02:44:20.779Z,97870.03
2023-04-22T02:45:22.433Z,97862.47
2023-04-22T02:46:23.876Z,97867.78
2023-04-22T02:47:25.494Z,97865.53
2023-04-22T02:48:27.002Z,97867.38
2023-04-22T02:49:28.455Z,97866.63
2023-04-22T02:50:30.100Z,97870.78
2023-04-22T02:51:33.067Z,97870.78
2023-04-22T02:52:34.492Z,97863.63
2023-04-22T02:53:36.281Z,97871.91
2023-04-22T02:54:37.802Z,97874.19
2023-04-22T02:55:42.678Z,97865.44
2023-04-22T02:56:44.124Z,97866.59
2023-04-22T02:57:46.016Z,97865.78
2023-04-22T02:58:47.582Z,97858.59
2023-04-22T02:59:49.065Z,97869.53
2023-04-22T03:00:50.600Z,97859.38
2023-04-22T03:01:52.140Z,97860.84
2023-04-22T03:02:53.932Z,97863.09
2023-04-22T03:03:56.742Z,97862.38
2023-04-22T03:04:58.356Z,97861.28
2023-04-22T03:06:00.065Z,97867.31
2023-04-22T03:07:01.568Z,97860.50
2023-04-22T03:08:03.105Z,97862.38
2023-04-22T03:09:04.553Z,97865.78
2023-04-22T03:10:06.821Z,97863.16
2023-04-22T03:11:08.323Z,97864.28
2023-04-22T03:12:09.786Z,97868.84
2023-04-22T03:13:13.062Z,97865.81
2023-04-22T03:14:14.512Z,97869.56
2023-04-22T03:15:17.541Z,97868.41
2023-04-22T03:16:24.112Z,97867.22
2023-04-22T03:17:26.114Z,97869.53
2023-04-22T03:18:27.676Z,97865.69
2023-04-22T03:19:29.134Z,97864.97
2023-04-22T03:20:30.617Z,97869.06
2023-04-22T03:21:32.403Z,97867.59
2023-04-22T03:22:33.877Z,97872.50
2023-04-22T03:23:35.731Z,97870.63
2023-04-22T03:24:37.452Z,97861.91
2023-04-22T03:25:38.901Z,97864.16
2023-04-22T03:26:40.330Z,97859.56
2023-04-22T03:27:41.776Z,97861.47
2023-04-22T03:28:43.284Z,97856.16
2023-04-22T03:29:44.794Z,97858.78
2023-04-22T03:30:46.316Z,97858.34
2023-04-22T03:31:47.851Z,97856.09
2023-04-22T03:32:49.475Z,97860.19
2023-04-22T03:33:50.946Z,97867.75
2023-04-22T03:34:52.445Z,97860.19
2023-04-22T03:35:55.167Z,97859.78
2023-04-22T03:36:56.642Z,97860.50
2023-04-22T03:37:58.100Z,97857.47
2023-04-22T03:38:59.526Z,97856.72
2023-04-22T03:40:00.982Z,97860.84
2023-04-22T03:41:02.459Z,97856.63
2023-04-22T03:42:04.145Z,97857.38
2023-04-22T03:43:05.612Z,97855.09
2023-04-22T03:44:07.143Z,97858.53
2023-04-22T03:45:08.834Z,97849.88
2023-04-22T03:46:10.908Z,97849.38
2023-04-22T03:47:12.789Z,97847.56
2023-04-22T03:48:14.749Z,97855.09
2023-04-22T03:49:16.218Z,97852.50
2023-04-22T03:50:17.766Z,97846.47
2023-04-22T03:51:19.256Z,97846.16
2023-04-22T03:52:21.161Z,97845.78
2023-04-22T03:53:22.650Z,97847.69
2023-04-22T03:54:25.416Z,97846.22
2023-04-22T03:55:26.947Z,97852.97
2023-04-22T03:56:28.462Z,97849.22
2023-04-22T03:57:29.908Z,97853.38
2023-04-22T03:58:31.396Z,97853.75
2023-04-22T03:59:32.927Z,97853.00
2023-04-22T04:00:34.382Z,97853.75
2023-04-22T04:01:36.246Z,97847.34
2023-04-22T04:02:37.870Z,97855.97
2023-04-22T04:03:39.663Z,97854.84
2023-04-22T04:04:41.690Z,97851.78
2023-04-22T04:05:43.392Z,97851.41
2023-04-22T04:06:45.021Z,97848.03
2023-04-22T04:07:46.488Z,97851.75
2023-04-22T04:08:47.996Z,97857.44
2023-04-22T04:09:49.468Z,97849.88
2023-04-22T04:10:50.972Z,97847.91
2023-04-22T04:11:52.484Z,97849.03
2023-04-22T04:12:53.942Z,97846.44
2023-04-22T04:13:55.410Z,97845.72
2023-04-22T04:14:56.917Z,97842.31
2023-04-22T04:16:00.200Z,97844.94
2023-04-22T04:17:02.232Z,97840.84
2023-04-22T04:18:04.289Z,97842.75
2023-04-22T04:19:06.779Z,97838.94
2023-04-22T04:20:08.893Z,97845.72
2023-04-22T04:21:10.675Z,97840.88
2023-04-22T04:22:12.177Z,97845.75
2023-04-22T04:23:13.723Z,97840.09
2023-04-22T04:24:15.206Z,97843.50
2023-04-22T04:25:18.334Z,97843.50
2023-04-22T04:26:20.468Z,97845.75
2023-04-22T04:27:23.607Z,97841.66
2023-04-22T04:28:25.565Z,97841.66
2023-04-22T04:29:27.114Z,97837.13
2023-04-22T04:30:28.565Z,97844.66
2023-04-22T04:31:30.137Z,97842.78
2023-04-22T04:32:34.419Z,97845.78
2023-04-22T04:33:37.060Z,97846.19
2023-04-22T04:34:38.598Z,97840.94
2023-04-22T04:35:41.611Z,97849.59
2023-04-22T04:36:43.281Z,97839.81
2023-04-22T04:37:44.771Z,97847.75
2023-04-22T04:38:47.662Z,97852.66
2023-04-22T04:39:49.038Z,97855.28
2023-04-22T04:40:51.158Z,97854.88
2023-04-22T04:41:55.331Z,97848.13
2023-04-22T04:42:57.540Z,97844.75
2023-04-22T04:44:01.828Z,97852.28
2023-04-22T04:45:03.542Z,97844.78
2023-04-22T04:46:05.610Z,97843.63
2023-04-22T04:47:07.073Z,97844.81
2023-04-22T04:48:09.059Z,97850.84
2023-04-22T04:49:12.605Z,97844.84
2023-04-22T04:50:14.098Z,97842.88
2023-04-22T04:51:17.552Z,97848.56
2023-04-22T04:52:20.410Z,97847.06
2023-04-22T04:53:22.460Z,97846.34
2023-04-22T04:54:23.948Z,97844.84
2023-04-22T04:55:25.533Z,97844.50
2023-04-22T04:56:26.991Z,97844.13
2023-04-22T04:57:28.933Z,97847.88
2023-04-22T04:58:30.404Z,97844.50
2023-04-22T04:59:31.898Z,97850.19
2023-04-22T05:00:33.386Z,97846.41
2023-04-22T05:01:35.367Z,97847.19
2023-04-22T05:02:37.016Z,97851.34
2023-04-22T05:03:38.751Z,97845.31
2023-04-22T05:04:40.345Z,97850.97
2023-04-22T05:05:41.980Z,97847.25
2023-04-22T05:06:43.484Z,97849.88
2023-04-22T05:07:44.945Z,97861.19
2023-04-22T05:08:46.360Z,97855.56
2023-04-22T05:09:47.809Z,97859.34
2023-04-22T05:10:49.410Z,97860.50
2023-04-22T05:11:51.074Z,97854.84
2023-04-22T05:12:52.700Z,97852.22
2023-04-22T05:13:54.224Z,97860.13
2023-04-22T05:14:55.814Z,97865.41
2023-04-22T05:15:57.440Z,97860.13
2023-04-22T05:16:59.053Z,97862.78
2023-04-22T05:18:08.608Z,97858.63
2023-04-22T05:19:10.375Z,97866.97
2023-04-22T05:20:11.987Z,97864.69
2023-04-22T05:21:13.555Z,97868.13
2023-04-22T05:22:15.077Z,97864.75
2023-04-22T05:23:16.535Z,97874.19
2023-04-22T05:24:18.126Z,97866.28
2023-04-22T05:25:19.621Z,97871.19
2023-04-22T05:26:21.244Z,97878.38
2023-04-22T05:27:22.848Z,97879.53
2023-04-22T05:28:24.393Z,97878.78
2023-04-22T05:29:25.893Z,97872.75
2023-04-22T05:30:27.473Z,97880.69
2023-04-22T05:31:29.241Z,97878.84
2023-04-22T05:32:30.759Z,97878.44
2023-04-22T05:33:32.406Z,97874.69
2023-04-22T05:34:34.244Z,97880.41
2023-04-22T05:35:35.698Z,97878.13
2023-04-22T05:36:37.169Z,97876.25
2023-04-22T05:37:39.087Z,97881.56
2023-04-22T05:38:40.611Z,97878.16
2023-04-22T05:39:42.319Z,97878.16
2023-04-22T05:40:43.912Z,97886.13
2023-04-22T05:41:47.066Z,97878.19
2023-04-22T05:42:48.734Z,97883.50
2023-04-22T05:43:50.318Z,97881.97
2023-04-22T05:44:51.786Z,97882.34
2023-04-22T05:45:53.283Z,97880.13
2023-04-22T05:46:54.803Z,97879.34
2023-04-22T05:47:56.287Z,97880.88
2023-04-22T05:48:57.770Z,97881.63
2023-04-22T05:49:59.233Z,97883.16
2023-04-22T05:51:00.861Z,97884.31
2023-04-22T05:52:02.336Z,97877.50
2023-04-22T05:53:03.780Z,97879.03
2023-04-22T05:54:05.307Z,97878.66
2023-04-22T05:55:07.446Z,97883.59
2023-04-22T05:56:08.977Z,97874.91
2023-04-22T05:57:10.620Z,97884.72
2023-04-22T05:58:12.118Z,97883.59
2023-04-22T05:59:13.633Z,97880.19
2023-04-22T06:00:15.986Z,97883.97
2023-04-22T06:01:17.625Z,97887.72
2023-04-22T06:02:19.278Z,97889.25
2023-04-22T06:03:21.149Z,97891.91
2023-04-22T06:04:22.991Z,97889.63
2023-04-22T06:05:24.817Z,97893.78
2023-04-22T06:06:27.463Z,97899.09
2023-04-22T06:07:29.339Z,97900.59
2023-04-22T06:08:33.947Z,97898.34
2023-04-22T06:09:36.150Z,97895.31
2023-04-22T06:10:37.619Z,97890.75
2023-04-22T06:11:39.122Z,97894.53
2023-04-22T06:12:40.776Z,97898.69
2023-04-22T06:13:42.201Z,97894.53
2023-04-22T06:14:43.637Z,97895.63
2023-04-22T06:15:45.136Z,97893.72
2023-04-22T06:16:46.638Z,97892.94
2023-04-22T06:17:48.751Z,97892.59
2023-04-22T06:18:50.231Z,97897.47
2023-04-22T06:19:51.695Z,97891.78
2023-04-22T06:20:53.897Z,97890.25
2023-04-22T06:21:55.344Z,97893.59
2023-04-22T06:22:56.805Z,97887.91
2023-04-22T06:23:58.324Z,97899.22
2023-04-22T06:24:59.773Z,97895.41
2023-04-22T06:26:01.849Z,97898.41
2023-04-22T06:27:03.513Z,97891.56
2023-04-22T06:28:05.065Z,97890.38
2023-04-22T06:29:08.686Z,97895.66
2023-04-22T06:30:11.636Z,97897.91
2023-04-22T06:31:13.160Z,97896.34
2023-04-22T06:32:14.612Z,97896.31
2023-04-22T06:33:16.266Z,97896.28
2023-04-22T06:34:17.756Z,97897.34
2023-04-22T06:35:19.206Z,97892.69
2023-04-22T06:36:20.871Z,97898.28
2023-04-22T06:37:22.467Z,97898.97
2023-04-22T06:38:23.866Z,97897.72
2023-04-22T06:39:25.347Z,97900.22
2023-04-22T06:40:26.941Z,97902.06
2023-04-22T06:41:28.393Z,97897.78
2023-04-22T06:42:29.917Z,97896.16
2023-04-22T06:43:31.477Z,97898.75
2023-04-22T06:44:33.118Z,97890.31
2023-04-22T06:45:37.471Z,97889.19
2023-04-22T06:46:39.063Z,97888.72
2023-04-22T06:47:40.661Z,97890.50
2023-04-22T06:48:42.138Z,97889.31
2023-04-22T06:49:45.007Z,97883.91
2023-04-22T06:50:46.375Z,97889.38
2023-04-22T06:51:47.724Z,97897.56
2023-04-22T06:52:49.223Z,97890.19
2023-04-22T06:53:52.081Z,97892.06
2023-04-22T06:54:53.557Z,97891.88
2023-04-22T06:55:55.048Z,97886.75
2023-04-22T06:56:56.668Z,97894.69
2023-04-22T06:57:58.281Z,97889.97
2023-04-22T06:58:59.721Z,97893.63
2023-04-22T07:00:01.199Z,97887.38
2023-04-22T07:01:02.998Z,97894.84
2023-04-22T07:02:05.801Z,97891.22
2023-04-22T07:03:07.454Z,97889.19
2023-04-22T07:04:08.986Z,97883.13
2023-04-22T07:05:10.556Z,97883.25
2023-04-22T07:06:12.413Z,97879.72
2023-04-22T07:07:14.085Z,97876.84
2023-04-22T07:08:15.802Z,97882.50
2023-04-22T07:09:17.436Z,97879.78
2023-04-22T07:10:19.419Z,97880.03
2023-04-22T07:11:21.732Z,97879.09
2023-04-22T07:12:25.500Z,97882.72
2023-04-22T07:13:27.280Z,97875.75
2023-04-22T07:14:28.984Z,97878.75
2023-04-22T07:15:31.106Z,97879.66
2023-04-22T07:16:32.994Z,97879.84
2023-04-22T07:17:34.573Z,97880.44
2023-04-22T07:18:36.422Z,97879.53
2023-04-22T07:19:39.070Z,97882.91
2023-04-22T07:20:40.865Z,97877.94
2023-04-22T07:21:42.364Z,97878.59
2023-04-22T07:22:43.797Z,97871.59
2023-04-22T07:23:45.410Z,97878.44
2023-04-22T07:24:46.899Z,97883.44
2023-04-22T07:25:48.866Z,97869.69
2023-04-22T07:26:50.425Z,97869.44
2023-04-22T07:27:51.962Z,97871.00
2023-04-22T07:28:53.426Z,97875.13
2023-04-22T07:29:55.002Z,97874.63
2023-04-22T07:30:56.828Z,97881.59
2023-04-22T07:31:58.349Z,97873.94
2023-04-22T07:32:59.935Z,97875.34
2023-04-22T07:34:01.544Z,97877.13
2023-04-22T07:35:03.444Z,97876.31
2023-04-22T07:36:05.636Z,97878.31
2023-04-22T07:37:07.501Z,97873.09
2023-04-22T07:38:09.833Z,97866.19
2023-04-22T07:39:12.134Z,97867.94
2023-04-22T07:40:14.118Z,97871.53
2023-04-22T07:41:15.790Z,97875.31
2023-04-22T07:42:17.423Z,97872.97
2023-04-22T07:43:18.980Z,97872.16
2023-04-22T07:44:21.710Z,97864.97
2023-04-22T07:45:23.512Z,97871.47
2023-04-22T07:46:25.214Z,97870.16
2023-04-22T07:47:26.697Z,97870.28
2023-04-22T07:48:28.369Z,97868.38
2023-04-22T07:49:29.872Z,97867.69
2023-04-22T07:50:31.961Z,97866.28
2023-04-22T07:51:33.402Z,97871.28
2023-04-22T07:52:34.899Z,97870.41
2023-04-22T07:53:36.473Z,97868.41
2023-04-22T07:54:37.959Z,97874.97
2023-04-22T07:55:39.772Z,97869.41
2023-04-22T07:56:41.476Z,97877.59
2023-04-22T07:57:42.968Z,97882.41
2023-04-22T07:58:44.413Z,97876.25
2023-04-22T07:59:46.026Z,97877.16
2023-04-22T08:00:47.822Z,97874.31
2023-04-22T08:01:49.334Z,97879.38
2023-04-22T08:02:51.034Z,97875.97
2023-04-22T08:03:52.778Z,97874.19
2023-04-22T08:04:54.766Z,97874.19
2023-04-22T08:05:58.369Z,97875.09
2023-04-22T08:07:01.828Z,97871.00
2023-04-22T08:08:03.404Z,97867.13
2023-04-22T08:09:05.006Z,97872.63
2023-04-22T08:10:07.538Z,97862.47
2023-04-22T08:11:09.148Z,97867.59
2023-04-22T08:12:10.588Z,97868.78
2023-04-22T08:13:12.021Z,97866.97
2023-04-22T08:14:13.496Z,97871.78
2023-04-22T08:15:15.166Z,97867.09
2023-04-22T08:16:16.824Z,97869.88
2023-04-22T08:17:21.902Z,97866.66
2023-04-22T08:18:23.713Z,97869.75
2023-04-22T08:19:25.168Z,97865.25
2023-04-22T08:20:27.131Z,97867.81
2023-04-22T08:21:28.681Z,97867.22
2023-04-22T08:22:30.230Z,97872.03
2023-04-22T08:23:32.454Z,97863.03
2023-04-22T08:24:33.918Z,97859.59
2023-04-22T08:25:36.078Z,97866.34
2023-04-22T08:26:38.271Z,97857.34
2023-04-22T08:27:39.856Z,97865.47
2023-04-22T08:28:42.353Z,97858.38
2023-04-22T08:29:44.039Z,97865.22
2023-04-22T08:30:45.829Z,97863.50
2023-04-22T08:31:47.337Z,97866.81
2023-04-22T08:32:48.837Z,97861.84
2023-04-22T08:33:51.110Z,97871.00
2023-04-22T08:34:54.226Z,97865.44
2023-04-22T08:35:59.163Z,97871.19
2023-04-22T08:37:00.638Z,97873.44
2023-04-22T08:38:02.261Z,97865.72
2023-04-22T08:39:03.787Z,97868.69
2023-04-22T08:40:06.089Z,97870.06
2023-04-22T08:41:08.361Z,97872.50
2023-04-22T08:42:10.364Z,97867.84
2023-04-22T08:43:12.348Z,97869.50
2023-04-22T08:44:14.877Z,97869.81
2023-04-22T08:45:16.969Z,97865.81
2023-04-22T08:46:21.497Z,97859.72
2023-04-22T08:47:24.032Z,97854.00
2023-04-22T08:48:26.654Z,97860.09
2023-04-22T08:49:30.347Z,97862.09
2023-04-22T08:50:32.983Z,97859.94
2023-04-22T08:51:35.253Z,97860.09
2023-04-22T08:52:37.596Z,97862.09
2023-04-22T08:53:39.057Z,97860.63
2023-04-22T08:54:41.411Z,97865.00
2023-04-22T08:55:44.869Z,97862.53
2023-04-22T08:56:46.620Z,97859.44
2023-04-22T08:57:48.807Z,97855.25
2023-04-22T08:58:51.801Z,97855.38
2023-04-22T08:59:55.511Z,97846.09
2023-04-22T09:00:57.682Z,97854.03
2023-04-22T09:02:00.015Z,97848.81
2023-04-22T09:03:03.521Z,97845.56
2023-04-22T09:04:05.917Z,97849.00
2023-04-22T09:05:10.166Z,97839.56
2023-04-22T09:06:12.180Z,97838.09
2023-04-22T09:07:26.904Z,97839.41
2023-04-22T09:08:28.575Z,97831.31
2023-04-22T09:09:32.296Z,97834.72
2023-04-22T09:10:37.141Z,97823.81
2023-04-22T09:11:38.941Z,97827.81
2023-04-22T09:12:43.855Z,97819.66
2023-04-22T09:13:45.340Z,97830.25
2023-04-22T09:14:46.871Z,97833.25
2023-04-22T09:15:48.388Z,97832.50
2023-04-22T09:16:50.029Z,97826.38
2023-04-22T09:17:52.448Z,97819.94
2023-04-22T09:18:53.938Z,97821.72
2023-04-22T09:20:04.625Z,97821.09
2023-04-22T09:21:06.143Z,97824.22
2023-04-22T09:22:10.955Z,97812.13
2023-04-22T09:23:13.239Z,97819.41
2023-04-22T09:24:16.528Z,97813.31
2023-04-22T09:25:22.184Z,97820.16
2023-04-22T09:26:26.218Z,97813.31
2023-04-22T09:27:28.734Z,97815.38
2023-04-22T09:28:30.290Z,97809.38
2023-04-22T09:29:35.180Z,97817.13
2023-04-22T09:30:37.814Z,97809.06
2023-04-22T09:31:40.798Z,97823.03
2023-04-22T09:32:42.384Z,97820.88
2023-04-22T09:33:52.254Z,97815.34
2023-04-22T09:34:55.340Z,97820.50
2023-04-22T09:35:56.898Z,97816.78
2023-04-22T09:36:58.387Z,97819.56
2023-04-22T09:38:02.052Z,97814.88
2023-04-22T09:39:07.319Z,97813.22
2023-04-22T09:40:09.720Z,97807.97
2023-04-22T09:41:12.347Z,97808.25
2023-04-22T09:42:13.839Z,97812.75
2023-04-22T09:43:20.063Z,97819.63
2023-04-22T09:44:21.679Z,97814.25
2023-04-22T09:45:30.611Z,97809.53
2023-04-22T09:46:33.941Z,97816.81
2023-04-22T09:47:36.561Z,97820.88
2023-04-22T09:48:44.104Z,97810.34
2023-04-22T09:49:47.546Z,97814.84
2023-04-22T09:50:52.097Z,97807.09
2023-04-22T09:51:58.087Z,97812.16
2023-04-22T09:53:02.438Z,97803.56
2023-04-22T09:54:08.636Z,97805.22
2023-04-22T09:55:10.095Z,97808.97
2023-04-22T09:56:11.941Z,97800.78
2023-04-22T09:57:16.297Z,97800.50
2023-04-22T09:58:25.769Z,97801.56
2023-04-22T09:59:29.270Z,97801.69
2023-04-22T10:00:31.592Z,97806.41
2023-04-22T10:01:41.252Z,97796.75
2023-04-22T10:02:43.045Z,97795.13
2023-04-22T10:03:44.921Z,97800.66
2023-04-22T10:04:47.701Z,97801.97
2023-04-22T10:05:49.479Z,97795.25
2023-04-22T10:06:52.267Z,97797.38
2023-04-22T10:07:53.708Z,97789.03
2023-04-22T10:08:55.254Z,97795.25
2023-04-22T10:09:57.742Z,97795.69
2023-04-22T10:10:59.283Z,97796.44
2023-04-22T10:12:01.408Z,97792.16
2023-04-22T10:13:06.420Z,97795.88
2023-04-22T10:14:10.665Z,97794.16
2023-04-22T10:15:12.165Z,97793.28
2023-04-22T10:16:14.721Z,97789.09
2023-04-22T10:17:17.648Z,97784.19
2023-04-22T10:18:21.513Z,97776.88
2023-04-22T10:19:25.242Z,97782.44
2023-04-22T10:20:29.780Z,97779.47
2023-04-22T10:21:32.441Z,97784.75
2023-04-22T10:22:35.787Z,97788.09
2023-04-22T10:23:37.317Z,97786.66
2023-04-22T10:24:40.044Z,97784.44
2023-04-22T10:25:42.268Z,97789.06
2023-04-22T10:26:49.434Z,97779.56
2023-04-22T10:28:03.873Z,97784.50
2023-04-22T10:29:08.011Z,97786.59
2023-04-22T10:30:10.760Z,97792.16
2023-04-22T10:31:22.127Z,97781.91
2023-04-22T10:32:25.943Z,97785.38
2023-04-22T10:33:28.743Z,97789.41
2023-04-22T10:34:32.782Z,97781.50
2023-04-22T10:35:34.227Z,97784.66
2023-04-22T10:36:52.034Z,97770.59
2023-04-22T10:37:53.483Z,97774.66
2023-04-22T10:38:54.864Z,97779.84
2023-04-22T10:40:09.076Z,97772.09
2023-04-22T10:41:15.098Z,97774.06
2023-04-22T10:42:16.550Z,97772.72
2023-04-22T10:43:19.942Z,97768.81
2023-04-22T10:44:22.901Z,97765.22
2023-04-22T10:45:26.513Z,97767.31
2023-04-22T10:46:40.365Z,97773.88
2023-04-22T10:47:42.588Z,97767.34
2023-04-22T10:48:50.700Z,97766.44
2023-04-22T10:49:52.789Z,97764.91
2023-04-22T10:50:54.253Z,97756.41
2023-04-22T10:52:01.005Z,97755.22
2023-04-22T10:53:35.315Z,97753.41
2023-04-22T10:54:39.648Z,97756.25
2023-04-22T10:55:52.758Z,97747.16
2023-04-22T10:57:04.892Z,97746.84
2023-04-22T10:58:20.076Z,97752.06
2023-04-22T10:59:21.722Z,97753.69
2023-04-22T11:00:35.275Z,97748.44
2023-04-22T11:01:44.658Z,97748.44
2023-04-22T11:02:51.811Z,97752.56
2023-04-22T11:03:53.489Z,97752.16
2023-04-22T11:05:22.862Z,97746.91
2023-04-22T11:06:27.951Z,97732.88
2023-04-22T11:07:31.910Z,97745.91
2023-04-22T11:08:33.446Z,97743.69
2023-04-22T11:09:59.569Z,97747.59
2023-04-22T11:11:08.987Z,97743.25
2023-04-22T11:12:38.580Z,97742.34
2023-04-22T11:13:47.514Z,97736.84
2023-04-22T11:14:50.437Z,97732.81
2023-04-22T11:15:55.375Z,97737.88
2023-04-22T11:16:57.278Z,97738.19
2023-04-22T11:17:59.211Z,97745.66
2023-04-22T11:19:01.040Z,97741.16
2023-04-22T11:20:04.807Z,97737.28
2023-04-22T11:21:08.487Z,97735.34
2023-04-22T11:22:11.639Z,97744.31
2023-04-22T11:23:17.864Z,97734.00
2023-04-22T11:24:20.658Z,97745.81
2023-04-22T11:25:23.099Z,97741.91
2023-04-22T11:26:37.629Z,97732.06
2023-04-22T11:27:40.895Z,97734.91
2023-04-22T11:28:48.812Z,97733.88
2023-04-22T11:30:00.384Z,97721.75
2023-04-22T11:31:10.475Z,97730.56
2023-04-22T11:32:12.121Z,97733.53
2023-04-22T11:33:15.316Z,97733.53
2023-04-22T11:34:18.461Z,97728.63
2023-04-22T11:35:21.397Z,97723.56
2023-04-22T11:36:23.175Z,97738.63
2023-04-22T11:37:25.247Z,97725.50
2023-04-22T11:38:26.881Z,97723.09
2023-04-22T11:39:43.588Z,97722.66
2023-04-22T11:40:51.888Z,97726.84
2023-04-22T11:41:53.379Z,97725.34
2023-04-22T11:42:55.382Z,97727.75
2023-04-22T11:43:56.968Z,97722.03
2023-04-22T11:44:58.415Z,97722.22
2023-04-22T11:45:59.952Z,97724.59
2023-04-22T11:47:01.561Z,97718.47
2023-04-22T11:48:05.719Z,97721.03
2023-04-22T11:49:16.713Z,97715.91
2023-04-22T11:50:22.443Z,97731.31
2023-04-22T11:51:24.153Z,97722.66
2023-04-22T11:52:39.677Z,97715.47
2023-04-22T11:53:50.622Z,97709.47
2023-04-22T11:54:52.121Z,97713.69
2023-04-22T11:55:53.634Z,97710.81
2023-04-22T11:56:55.188Z,97715.16
2023-04-22T11:57:59.865Z,97711.09
2023-04-22T11:59:01.349Z,97717.38
2023-04-22T12:00:03.202Z,97720.41
2023-04-22T12:01:04.718Z,97708.72
2023-04-22T12:02:07.075Z,97712.47
2023-04-22T12:03:17.650Z,97706.66
2023-04-22T12:04:22.485Z,97711.41
2023-04-22T12:05:44.797Z,97706.94
2023-04-22T12:06:47.079Z,97699.28
2023-04-22T12:07:50.323Z,97705.38
2023-04-22T12:08:52.182Z,97701.44
2023-04-22T12:09:54.553Z,97707.09
2023-04-22T12:10:58.533Z,97701.34
2023-04-22T12:12:00.362Z,97714.53
2023-04-22T12:13:02.305Z,97698.97
2023-04-22T12:14:07.142Z,97696.06
2023-04-22T12:15:12.713Z,97696.66
2023-04-22T12:16:19.263Z,97711.28